createdAt,value
2019-03-19T00:01:42.138Z,6.30
2019-03-19T00:04:12.237Z,6.67
2019-03-19T00:06:42.250Z,5.90
2019-03-19T00:09:12.347Z,6.37
2019-03-19T00:11:42.494Z,7.00
2019-03-19T00:14:12.546Z,7.40
2019-03-19T00:16:42.791Z,7.93
2019-03-19T00:19:12.987Z,7.10
2019-03-19T00:21:43.273Z,7.90
2019-03-19T00:24:14.168Z,7.93
2019-03-19T00:26:44.471Z,6.73
2019-03-19T00:29:14.603Z,6.00
2019-03-19T00:31:44.955Z,6.50
2019-03-19T00:34:15.099Z,6.87
2019-03-19T00:36:45.762Z,6.50
2019-03-19T00:39:15.862Z,9.47
2019-03-19T00:41:46.635Z,9.27
2019-03-19T00:44:17.252Z,7.50
2019-03-19T00:46:49.070Z,8.47
2019-03-19T00:49:20.773Z,7.90
2019-03-19T00:51:51.337Z,7.43
2019-03-19T00:54:21.523Z,7.27
2019-03-19T00:56:51.690Z,7.00
2019-03-19T00:59:21.830Z,7.10
2019-03-19T01:01:52.200Z,8.57
2019-03-19T01:04:22.476Z,9.70
2019-03-19T01:06:52.745Z,8.47
2019-03-19T01:09:23.482Z,9.30
2019-03-19T01:11:53.871Z,8.43
2019-03-19T01:14:24.019Z,7.90
2019-03-19T01:16:54.256Z,8.03
2019-03-19T01:19:24.369Z,7.87
2019-03-19T01:21:54.693Z,6.67
2019-03-19T01:24:24.861Z,7.50
2019-03-19T01:26:55.097Z,8.97
2019-03-19T01:29:42.289Z,8.30
2019-03-19T01:32:12.368Z,6.90
2019-03-19T01:34:42.439Z,7.00
2019-03-19T01:37:12.944Z,6.40
2019-03-19T01:39:42.924Z,7.37
2019-03-19T01:42:13.115Z,7.47
2019-03-19T01:44:43.225Z,6.90
2019-03-19T01:47:16.860Z,6.77
2019-03-19T01:49:46.811Z,7.90
2019-03-19T01:52:16.961Z,6.97
2019-03-19T01:54:47.097Z,8.13
2019-03-19T01:57:17.173Z,7.90
2019-03-19T01:59:47.151Z,7.83
2019-03-19T02:02:17.335Z,7.30
2019-03-19T02:04:47.316Z,7.30
2019-03-19T02:07:17.486Z,5.87
2019-03-19T02:09:47.636Z,8.50
2019-03-19T02:12:18.029Z,7.73
2019-03-19T02:14:48.469Z,7.97
2019-03-19T02:17:18.838Z,8.07
2019-03-19T02:19:49.384Z,8.43
2019-03-19T02:22:19.596Z,7.13
2019-03-19T02:24:49.538Z,8.23
2019-03-19T02:27:19.855Z,7.40
2019-03-19T02:29:49.840Z,6.03
2019-03-19T02:32:19.962Z,8.13
2019-03-19T02:34:50.145Z,7.10
2019-03-19T02:37:20.301Z,7.20
2019-03-19T02:39:51.184Z,8.23
2019-03-19T02:42:21.289Z,6.43
2019-03-19T02:44:51.500Z,8.27
2019-03-19T02:47:21.621Z,7.43
2019-03-19T02:49:52.112Z,7.33
2019-03-19T02:52:22.262Z,7.70
2019-03-19T02:54:52.400Z,7.63
2019-03-19T02:57:22.549Z,7.37
2019-03-19T02:59:52.738Z,7.60
2019-03-19T03:02:22.896Z,7.33
2019-03-19T03:04:53.383Z,7.00
2019-03-19T03:07:23.618Z,7.47
2019-03-19T03:09:53.866Z,7.50
2019-03-19T03:12:24.222Z,8.33
2019-03-19T03:14:54.596Z,7.77
2019-03-19T03:17:24.735Z,7.43
2019-03-19T03:19:55.012Z,7.27
2019-03-19T03:22:25.478Z,7.03
2019-03-19T03:24:55.770Z,6.23
2019-03-19T03:27:25.966Z,6.97
2019-03-19T03:29:56.177Z,7.20
2019-03-19T03:32:26.305Z,7.20
2019-03-19T03:34:56.761Z,8.10
2019-03-19T03:37:26.983Z,7.90
2019-03-19T03:39:57.122Z,7.50
2019-03-19T03:42:27.700Z,7.87
2019-03-19T03:44:57.822Z,8.37
2019-03-19T03:47:28.031Z,7.87
2019-03-19T03:49:58.478Z,7.73
2019-03-19T03:52:29.107Z,8.00
2019-03-19T03:54:59.342Z,7.57
2019-03-19T03:57:29.457Z,7.30
2019-03-19T03:59:59.825Z,7.60
2019-03-19T04:02:30.440Z,7.63
2019-03-19T04:05:00.722Z,6.00
2019-03-19T04:07:31.864Z,8.13
2019-03-19T04:10:02.138Z,8.67
2019-03-19T04:12:32.350Z,9.37
2019-03-19T04:15:02.382Z,9.87
2019-03-19T04:17:45.929Z,7.50
2019-03-19T04:20:17.267Z,7.90
2019-03-19T04:22:47.647Z,7.37
2019-03-19T04:25:17.894Z,10.40
2019-03-19T04:27:48.323Z,10.97
2019-03-19T04:30:18.375Z,9.13
2019-03-19T04:32:48.612Z,8.83
2019-03-19T04:35:18.746Z,6.97
2019-03-19T04:37:48.921Z,7.50
2019-03-19T04:40:18.939Z,7.30
2019-03-19T04:42:49.497Z,7.77
2019-03-19T04:45:19.605Z,7.80
2019-03-19T04:47:49.747Z,8.47
2019-03-19T04:50:19.828Z,8.97
2019-03-19T04:52:49.901Z,8.13
2019-03-19T04:55:20.117Z,8.27
2019-03-19T04:57:50.749Z,6.57
2019-03-19T05:00:20.750Z,8.27
2019-03-19T05:02:51.276Z,8.17
2019-03-19T05:05:21.389Z,7.80
2019-03-19T05:07:51.404Z,8.00
2019-03-19T05:10:21.524Z,7.80
2019-03-19T05:12:51.546Z,6.90
2019-03-19T05:15:21.866Z,14.50
2019-03-19T05:17:51.891Z,11.80
2019-03-19T05:20:22.079Z,13.03
2019-03-19T05:22:52.325Z,13.43
2019-03-19T05:25:22.633Z,11.03
2019-03-19T05:27:52.765Z,9.77
2019-03-19T05:30:22.908Z,9.20
2019-03-19T05:32:52.860Z,8.53
2019-03-19T05:35:24.274Z,7.33
2019-03-19T05:37:54.402Z,7.77
2019-03-19T05:40:24.575Z,8.03
2019-03-19T05:42:54.836Z,8.60
2019-03-19T05:45:25.341Z,8.60
2019-03-19T05:47:55.312Z,8.03
2019-03-19T05:50:25.379Z,8.80
2019-03-19T05:52:55.822Z,10.00
2019-03-19T05:55:25.912Z,9.03
2019-03-19T05:57:56.541Z,7.70
2019-03-19T06:00:28.827Z,7.27
2019-03-19T06:02:58.999Z,8.20
2019-03-19T06:05:29.295Z,9.00
2019-03-19T06:07:59.811Z,8.73
2019-03-19T06:10:30.766Z,7.50
2019-03-19T06:13:01.089Z,9.60
2019-03-19T06:15:31.491Z,9.33
2019-03-19T06:18:01.818Z,8.53
2019-03-19T06:20:31.973Z,8.87
2019-03-19T06:23:02.425Z,9.37
2019-03-19T06:25:32.600Z,10.33
2019-03-19T06:28:02.857Z,8.73
2019-03-19T06:30:32.986Z,10.30
2019-03-19T06:33:03.105Z,8.60
2019-03-19T06:35:33.198Z,9.17
2019-03-19T06:38:03.482Z,8.10
2019-03-19T06:40:33.709Z,9.70
2019-03-19T06:43:03.980Z,9.77
2019-03-19T06:45:34.698Z,8.87
2019-03-19T06:48:04.877Z,10.80
2019-03-19T06:50:44.786Z,9.63
2019-03-19T06:53:06.927Z,10.33
2019-03-19T06:55:37.102Z,10.43
2019-03-19T06:58:11.308Z,10.03
2019-03-19T07:00:39.133Z,9.50
2019-03-19T07:03:09.335Z,9.30
2019-03-19T07:05:39.450Z,10.13
2019-03-19T07:08:09.559Z,11.73
2019-03-19T07:10:39.749Z,10.07
2019-03-19T07:13:10.185Z,11.00
2019-03-19T07:15:40.521Z,11.83
2019-03-19T07:18:11.161Z,10.23
2019-03-19T07:20:42.018Z,10.13
2019-03-19T07:23:12.136Z,10.77
2019-03-19T07:25:42.265Z,10.20
2019-03-19T07:28:21.693Z,10.13
2019-03-19T07:30:44.341Z,10.07
2019-03-19T07:33:14.511Z,10.40
2019-03-19T07:35:44.619Z,10.20
2019-03-19T07:38:14.645Z,10.53
2019-03-19T07:40:44.897Z,8.70
2019-03-19T07:43:15.163Z,9.20
2019-03-19T07:45:45.519Z,9.63
2019-03-19T07:48:15.841Z,11.17
2019-03-19T07:50:46.011Z,9.80
2019-03-19T07:53:17.026Z,9.87
2019-03-19T07:55:47.221Z,8.93
2019-03-19T07:58:17.444Z,8.97
2019-03-19T08:00:47.689Z,10.07
2019-03-19T08:03:17.995Z,10.80
2019-03-19T08:05:48.514Z,9.40
2019-03-19T08:08:19.045Z,10.60
2019-03-19T08:10:49.217Z,9.27
2019-03-19T08:13:19.318Z,9.63
2019-03-19T08:15:49.900Z,9.87
2019-03-19T08:18:20.222Z,11.00
2019-03-19T08:20:50.528Z,9.10
2019-03-19T08:23:20.987Z,11.97
2019-03-19T08:25:51.124Z,12.43
2019-03-19T08:28:21.293Z,11.43
2019-03-19T08:30:51.478Z,10.73
2019-03-19T08:33:22.126Z,12.40
2019-03-19T08:35:53.355Z,10.83
2019-03-19T08:38:26.558Z,10.30
2019-03-19T08:40:57.014Z,11.03
2019-03-19T08:43:27.345Z,10.33
2019-03-19T08:45:57.453Z,10.77
2019-03-19T08:48:27.873Z,10.13
2019-03-19T08:50:58.334Z,10.47
2019-03-19T08:53:29.310Z,10.47
2019-03-19T08:56:01.094Z,9.07
2019-03-19T08:58:31.487Z,7.97
2019-03-19T09:01:02.034Z,8.30
2019-03-19T09:03:32.735Z,8.00
2019-03-19T09:06:03.189Z,6.73
2019-03-19T09:08:33.785Z,6.27
2019-03-19T09:11:04.622Z,5.30
2019-03-19T09:13:34.819Z,5.60
2019-03-19T09:16:05.065Z,5.03
2019-03-19T09:18:35.586Z,5.03
2019-03-19T09:21:05.981Z,4.30
2019-03-19T09:23:37.841Z,4.60
2019-03-19T09:26:08.144Z,4.43
2019-03-19T09:28:38.629Z,4.53
2019-03-19T09:31:08.764Z,3.93
2019-03-19T09:33:39.120Z,4.33
2019-03-19T09:36:09.577Z,3.73
2019-03-19T09:38:40.158Z,3.67
2019-03-19T09:41:10.220Z,2.53
2019-03-19T09:43:40.853Z,2.90
2019-03-19T09:46:11.009Z,3.10
2019-03-19T09:48:41.122Z,2.40
2019-03-19T09:51:11.371Z,2.63
2019-03-19T09:53:41.654Z,2.17
2019-03-19T09:56:12.189Z,2.10
2019-03-19T09:58:42.254Z,1.30
2019-03-19T10:01:13.216Z,1.43
2019-03-19T10:03:43.448Z,2.03
2019-03-19T10:06:14.468Z,1.67
2019-03-19T10:08:44.931Z,1.53
2019-03-19T10:11:15.271Z,2.10
2019-03-19T10:13:45.690Z,2.00
2019-03-19T10:16:15.823Z,1.90
2019-03-19T10:18:46.208Z,1.30
2019-03-19T10:21:16.520Z,1.40
2019-03-19T10:23:46.989Z,1.57
2019-03-19T10:26:17.604Z,1.90
2019-03-19T10:28:47.917Z,1.90
2019-03-19T10:31:18.152Z,1.70
2019-03-19T10:33:48.341Z,1.43
2019-03-19T10:36:18.513Z,1.70
2019-03-19T10:38:48.974Z,1.70
2019-03-19T10:41:19.394Z,1.60
2019-03-19T10:43:49.920Z,1.87
2019-03-19T10:46:20.348Z,1.90
2019-03-19T10:48:52.174Z,2.00
2019-03-19T10:51:22.176Z,1.50
2019-03-19T10:53:52.664Z,2.10
2019-03-19T10:56:22.826Z,1.50
2019-03-19T10:58:53.772Z,1.87
2019-03-19T11:01:24.715Z,1.90
2019-03-19T11:03:55.316Z,2.13
2019-03-19T11:06:25.655Z,1.80
2019-03-19T11:08:56.238Z,2.00
2019-03-19T11:11:40.235Z,1.50
2019-03-19T11:14:23.948Z,1.63
2019-03-19T11:16:54.122Z,1.53
2019-03-19T11:19:25.287Z,1.50
2019-03-19T11:21:55.853Z,1.57
2019-03-19T11:24:26.322Z,1.50
2019-03-19T11:26:56.511Z,1.50
2019-03-19T11:29:27.119Z,1.50
2019-03-19T11:31:57.361Z,1.33
2019-03-19T11:34:28.256Z,1.70
2019-03-19T11:36:58.475Z,2.53
2019-03-19T11:39:28.780Z,1.27
2019-03-19T11:41:58.998Z,1.20
2019-03-19T11:44:29.988Z,1.40
2019-03-19T11:47:00.206Z,1.70
2019-03-19T11:49:30.825Z,2.57
2019-03-19T11:52:00.977Z,2.87
2019-03-19T11:54:31.308Z,5.67
2019-03-19T11:57:01.623Z,4.80
2019-03-19T11:59:31.821Z,2.37
2019-03-19T12:02:02.199Z,1.63
2019-03-19T12:04:32.517Z,1.90
2019-03-19T12:07:02.874Z,1.93
2019-03-19T12:09:32.941Z,1.97
2019-03-19T12:12:03.187Z,2.23
2019-03-19T12:14:33.825Z,1.80
2019-03-19T12:17:04.207Z,2.20
2019-03-19T12:19:34.891Z,2.03
2019-03-19T12:22:06.445Z,2.07
2019-03-19T12:24:36.814Z,2.10
2019-03-19T12:27:07.067Z,1.70
2019-03-19T12:29:37.779Z,2.00
2019-03-19T12:32:14.119Z,1.80
2019-03-19T12:34:44.370Z,1.67
2019-03-19T12:37:14.721Z,7.13
2019-03-19T12:39:45.011Z,1.93
2019-03-19T12:42:15.177Z,1.80
2019-03-19T12:44:45.577Z,2.10
2019-03-19T12:47:16.030Z,1.70
2019-03-19T12:49:46.212Z,1.70
2019-03-19T12:52:17.074Z,1.70
2019-03-19T12:54:47.766Z,1.73
2019-03-19T12:57:17.972Z,1.70
2019-03-19T12:59:48.353Z,1.93
2019-03-19T13:02:18.735Z,1.90
2019-03-19T13:04:48.913Z,1.90
2019-03-19T13:07:19.149Z,1.60
2019-03-19T13:09:49.652Z,1.80
2019-03-19T13:12:19.769Z,2.07
2019-03-19T13:14:50.081Z,2.20
2019-03-19T13:17:20.311Z,2.07
2019-03-19T13:19:51.925Z,1.93
2019-03-19T13:22:22.129Z,1.70
2019-03-19T13:24:52.947Z,1.77
2019-03-19T13:27:23.069Z,1.60
2019-03-19T13:29:53.349Z,2.00
2019-03-19T13:32:24.252Z,2.80
2019-03-19T13:34:55.487Z,1.77
2019-03-19T13:37:26.674Z,1.80
2019-03-19T13:39:56.904Z,1.50
2019-03-19T13:42:27.801Z,1.70
2019-03-19T13:44:59.160Z,1.80
2019-03-19T13:47:31.140Z,1.87
2019-03-19T13:50:01.433Z,1.90
2019-03-19T13:52:31.901Z,1.97
2019-03-19T13:55:02.253Z,1.50
2019-03-19T13:57:33.283Z,1.87
2019-03-19T14:00:03.648Z,1.77
2019-03-19T14:02:33.696Z,1.60
2019-03-19T14:05:10.350Z,1.90
2019-03-19T14:07:43.862Z,1.50
2019-03-19T14:10:14.066Z,1.50
2019-03-19T14:12:44.289Z,1.63
2019-03-19T14:15:15.021Z,1.57
2019-03-19T14:17:45.469Z,1.87
2019-03-19T14:20:16.186Z,1.40
2019-03-19T14:22:46.644Z,1.70
2019-03-19T14:25:16.665Z,1.70
2019-03-19T14:27:47.796Z,1.70
2019-03-19T14:30:18.582Z,1.80
2019-03-19T14:32:48.870Z,1.80
2019-03-19T14:35:19.139Z,1.73
2019-03-19T14:37:49.514Z,1.70
2019-03-19T14:40:19.708Z,1.90
2019-03-19T14:42:49.942Z,1.80
2019-03-19T14:45:20.483Z,1.90
2019-03-19T14:47:51.502Z,1.73
2019-03-19T14:50:22.250Z,1.70
2019-03-19T14:52:52.555Z,1.70
2019-03-19T14:55:23.416Z,1.30
2019-03-19T14:57:53.521Z,1.90
2019-03-19T15:00:23.944Z,1.83
2019-03-19T15:02:54.266Z,1.50
2019-03-19T15:05:27.580Z,1.43
2019-03-19T15:07:58.366Z,1.50
2019-03-19T15:10:28.648Z,1.50
2019-03-19T15:12:58.869Z,1.60
2019-03-19T15:15:29.243Z,1.90
2019-03-19T15:17:59.521Z,1.60
2019-03-19T15:20:29.806Z,2.40
2019-03-19T15:23:04.173Z,1.80
2019-03-19T15:25:35.145Z,1.70
2019-03-19T15:28:05.611Z,1.77
2019-03-19T15:30:35.688Z,1.40
2019-03-19T15:33:05.857Z,1.60
2019-03-19T15:35:36.193Z,2.77
2019-03-19T15:38:07.171Z,1.30
2019-03-19T15:40:38.204Z,1.63
2019-03-19T15:43:09.126Z,1.70
2019-03-19T15:45:39.651Z,1.30
2019-03-19T15:48:09.826Z,1.70
2019-03-19T15:50:40.891Z,1.60
2019-03-19T15:53:11.491Z,1.40
2019-03-19T15:55:42.006Z,1.77
2019-03-19T15:58:12.111Z,1.83
2019-03-19T16:00:42.340Z,1.60
2019-03-19T16:03:12.893Z,1.67
2019-03-19T16:05:43.466Z,1.67
2019-03-19T16:08:14.127Z,1.90
2019-03-19T16:10:44.288Z,1.60
2019-03-19T16:13:15.473Z,1.43
2019-03-19T16:15:45.927Z,1.83
2019-03-19T16:18:16.679Z,1.63
2019-03-19T16:20:47.017Z,1.53
2019-03-19T16:23:17.463Z,1.80
2019-03-19T16:25:47.628Z,1.70
2019-03-19T16:28:18.004Z,1.60
2019-03-19T16:30:48.635Z,1.70
2019-03-19T16:33:22.732Z,1.60
2019-03-19T16:35:52.926Z,1.50
2019-03-19T16:38:23.724Z,1.40
2019-03-19T16:40:53.991Z,1.50
2019-03-19T16:43:24.861Z,2.50
2019-03-19T16:45:55.256Z,2.20
2019-03-19T16:48:25.825Z,6.53
2019-03-19T16:50:56.458Z,4.70
2019-03-19T16:53:27.627Z,2.27
2019-03-19T16:55:57.977Z,2.33
2019-03-19T16:58:28.289Z,3.50
2019-03-19T17:00:58.845Z,2.00
2019-03-19T17:03:29.093Z,2.10
2019-03-19T17:06:00.440Z,1.80
2019-03-19T17:08:30.642Z,2.10
2019-03-19T17:11:01.071Z,1.63
2019-03-19T17:13:32.489Z,4.93
2019-03-19T17:16:02.885Z,2.60
2019-03-19T17:18:33.135Z,2.33
2019-03-19T17:21:03.427Z,2.10
2019-03-19T17:23:34.194Z,2.10
2019-03-19T17:26:06.522Z,1.80
2019-03-19T17:28:36.929Z,2.07
2019-03-19T17:31:07.066Z,2.27
2019-03-19T17:33:37.433Z,2.70
2019-03-19T17:36:07.953Z,2.40
2019-03-19T17:38:41.694Z,2.10
2019-03-19T17:41:11.900Z,2.10
2019-03-19T17:43:42.612Z,2.50
2019-03-19T17:46:12.771Z,2.37
2019-03-19T17:48:42.940Z,2.50
2019-03-19T17:51:13.121Z,4.73
2019-03-19T17:53:43.407Z,2.30
2019-03-19T17:56:13.762Z,2.40
2019-03-19T17:58:44.100Z,2.20
2019-03-19T18:01:17.558Z,1.87
2019-03-19T18:03:46.228Z,1.63
2019-03-19T18:06:17.138Z,2.00
2019-03-19T18:08:47.506Z,2.43
2019-03-19T18:11:18.144Z,2.50
2019-03-19T18:13:48.360Z,2.30
2019-03-19T18:16:18.561Z,2.50
2019-03-19T18:18:49.514Z,2.07
2019-03-19T18:21:19.956Z,2.60
2019-03-19T18:23:50.216Z,2.63
2019-03-19T18:26:20.988Z,2.90
2019-03-19T18:28:51.598Z,2.50
2019-03-19T18:31:21.642Z,5.57
2019-03-19T18:33:52.065Z,4.23
2019-03-19T18:36:22.270Z,3.00
2019-03-19T18:38:52.572Z,3.30
2019-03-19T18:41:23.067Z,3.63
2019-03-19T18:43:53.506Z,4.00
2019-03-19T18:46:23.780Z,3.60
2019-03-19T18:48:54.094Z,3.60
2019-03-19T18:51:24.641Z,3.90
2019-03-19T18:53:54.740Z,3.30
2019-03-19T18:56:26.175Z,2.63
2019-03-19T18:58:57.715Z,5.97
2019-03-19T19:01:28.181Z,6.43
2019-03-19T19:03:58.277Z,9.43
2019-03-19T19:06:28.611Z,5.67
2019-03-19T19:09:41.205Z,5.73
2019-03-19T19:12:08.112Z,7.13
2019-03-19T19:14:38.341Z,6.73
2019-03-19T19:17:08.552Z,12.13
2019-03-19T19:19:38.785Z,14.47
2019-03-19T19:22:09.437Z,11.20
2019-03-19T19:24:39.835Z,9.40
2019-03-19T19:27:10.233Z,5.97
2019-03-19T19:29:40.359Z,5.30
2019-03-19T19:32:11.455Z,4.20
2019-03-19T19:34:42.923Z,4.50
2019-03-19T19:37:13.158Z,3.93
2019-03-19T19:39:43.592Z,3.20
2019-03-19T19:42:13.729Z,5.67
2019-03-19T19:44:43.905Z,6.20
2019-03-19T19:47:14.137Z,8.30
2019-03-19T19:49:44.505Z,8.80
2019-03-19T19:52:14.765Z,7.53
2019-03-19T19:54:44.969Z,7.40
2019-03-19T19:57:15.116Z,7.23
2019-03-19T19:59:45.422Z,6.60
2019-03-19T20:02:15.858Z,7.07
2019-03-19T20:04:46.037Z,7.23
2019-03-19T20:07:16.514Z,6.40
2019-03-19T20:09:46.969Z,8.53
2019-03-19T20:12:17.320Z,8.03
2019-03-19T20:14:49.280Z,10.10
2019-03-19T20:17:19.474Z,8.30
2019-03-19T20:19:49.882Z,8.60
2019-03-19T20:22:20.507Z,7.90
2019-03-19T20:24:57.274Z,9.53
2019-03-19T20:27:27.362Z,9.00
2019-03-19T20:29:57.581Z,7.43
2019-03-19T20:32:27.799Z,7.57
2019-03-19T20:34:57.950Z,8.13
2019-03-19T20:37:28.352Z,6.57
2019-03-19T20:39:58.977Z,6.93
2019-03-19T20:42:29.517Z,5.17
2019-03-19T20:44:59.723Z,4.73
2019-03-19T20:47:30.636Z,4.10
2019-03-19T20:50:00.786Z,4.10
2019-03-19T20:52:31.102Z,5.23
2019-03-19T20:55:04.877Z,4.97
2019-03-19T20:57:35.410Z,4.20
2019-03-19T21:00:06.761Z,4.70
2019-03-19T21:02:40.245Z,4.27
2019-03-19T21:05:10.459Z,4.53
2019-03-19T21:07:40.726Z,4.20
2019-03-19T21:10:17.242Z,3.63
2019-03-19T21:12:49.953Z,3.90
2019-03-19T21:15:23.145Z,4.27
2019-03-19T21:17:54.281Z,4.00
2019-03-19T21:20:24.886Z,4.10
2019-03-19T21:22:55.074Z,5.10
2019-03-19T21:25:25.489Z,7.77
2019-03-19T21:27:55.692Z,6.23
2019-03-19T21:30:25.887Z,6.00
2019-03-19T21:32:56.280Z,4.93
2019-03-19T21:35:26.452Z,5.33
2019-03-19T21:37:56.782Z,5.73
2019-03-19T21:40:27.137Z,6.73
2019-03-19T21:42:58.101Z,5.40
2019-03-19T21:45:32.463Z,5.00
2019-03-19T21:48:03.663Z,5.00
2019-03-19T21:50:34.041Z,6.10
2019-03-19T21:53:04.659Z,5.47
2019-03-19T21:55:34.933Z,5.60
2019-03-19T21:58:05.559Z,5.60
2019-03-19T22:00:35.868Z,7.57
2019-03-19T22:03:17.324Z,7.00
2019-03-19T22:05:47.758Z,7.40
2019-03-19T22:08:17.965Z,6.10
2019-03-19T22:10:48.163Z,6.80
2019-03-19T22:13:18.500Z,7.23
2019-03-19T22:15:48.863Z,6.90
2019-03-19T22:18:19.068Z,6.43
2019-03-19T22:20:49.329Z,6.23
2019-03-19T22:23:20.591Z,6.23
2019-03-19T22:25:50.765Z,6.53
2019-03-19T22:28:21.132Z,6.17
2019-03-19T22:30:51.668Z,6.67
2019-03-19T22:33:23.301Z,6.83
2019-03-19T22:35:54.750Z,6.33
2019-03-19T22:38:25.262Z,6.60
2019-03-19T22:40:55.549Z,6.83
2019-03-19T22:43:26.126Z,7.10
2019-03-19T22:45:56.766Z,7.10
2019-03-19T22:48:27.035Z,6.70
2019-03-19T22:50:58.271Z,8.40
2019-03-19T22:53:28.535Z,7.20
2019-03-19T22:55:58.786Z,6.07
2019-03-19T22:58:29.431Z,5.63
2019-03-19T23:00:59.720Z,6.00
2019-03-19T23:03:31.446Z,5.70
2019-03-19T23:06:01.595Z,5.50
2019-03-19T23:08:31.786Z,5.63
2019-03-19T23:11:01.887Z,6.03
2019-03-19T23:13:31.958Z,5.93
2019-03-19T23:16:02.243Z,5.80
2019-03-19T23:18:32.496Z,6.00
2019-03-19T23:21:02.744Z,5.47
2019-03-19T23:23:33.021Z,5.27
2019-03-19T23:26:03.112Z,6.13
2019-03-19T23:28:33.628Z,6.57
2019-03-19T23:31:03.867Z,6.00
2019-03-19T23:33:34.121Z,6.10
2019-03-19T23:36:04.585Z,6.37
2019-03-19T23:38:34.740Z,5.90
2019-03-19T23:41:05.243Z,5.53
2019-03-19T23:43:35.337Z,5.53
2019-03-19T23:46:05.546Z,5.27
2019-03-19T23:48:35.983Z,5.87
2019-03-19T23:51:06.127Z,4.87
2019-03-19T23:53:36.756Z,5.63
2019-03-19T23:56:07.464Z,5.00
2019-03-19T23:58:37.618Z,5.10
